createdAt,value
2022-10-19T00:01:23.454Z,10.70
2022-10-19T00:03:55.168Z,11.20
2022-10-19T00:06:28.266Z,11.80
2022-10-19T00:09:04.388Z,12.10
2022-10-19T00:11:35.903Z,12.70
2022-10-19T00:14:05.126Z,13.00
2022-10-19T00:16:38.062Z,11.40
2022-10-19T00:19:13.598Z,12.50
2022-10-19T00:21:42.435Z,11.90
2022-10-19T00:24:11.233Z,13.80
2022-10-19T00:26:39.608Z,12.50
2022-10-19T00:29:08.360Z,11.60
2022-10-19T00:31:36.742Z,12.40
2022-10-19T00:34:05.188Z,12.60
2022-10-19T00:36:37.703Z,11.40
2022-10-19T00:39:10.853Z,12.50
2022-10-19T00:41:39.758Z,10.70
2022-10-19T00:44:30.526Z,12.60
2022-10-19T00:47:04.881Z,11.80
2022-10-19T00:49:38.781Z,12.50
2022-10-19T00:52:13.321Z,12.80
2022-10-19T00:54:44.172Z,16.80
2022-10-19T00:57:13.455Z,14.50
2022-10-19T00:59:44.387Z,13.60
2022-10-19T01:02:13.513Z,15.50
2022-10-19T01:04:48.198Z,13.90
2022-10-19T01:07:16.819Z,17.40
2022-10-19T01:09:45.647Z,15.00
2022-10-19T01:12:46.781Z,14.30
2022-10-19T01:16:00.817Z,14.80
2022-10-19T01:19:07.668Z,15.10
2022-10-19T01:21:46.127Z,13.90
2022-10-19T01:24:36.999Z,14.40
2022-10-19T01:27:45.399Z,14.70
2022-10-19T01:30:42.280Z,15.00
2022-10-19T01:33:21.998Z,18.10
2022-10-19T01:36:18.889Z,14.30
2022-10-19T01:39:17.613Z,19.40
2022-10-19T01:42:01.412Z,15.00
2022-10-19T01:44:41.682Z,15.90
2022-10-19T01:47:27.446Z,15.90
2022-10-19T01:50:02.207Z,17.70
2022-10-19T01:52:33.041Z,15.60
2022-10-19T01:55:04.434Z,20.10
2022-10-19T01:57:39.701Z,21.70
2022-10-19T02:00:10.844Z,21.90
2022-10-19T02:02:44.859Z,17.90
2022-10-19T02:05:14.432Z,23.70
2022-10-19T02:07:48.501Z,17.30
2022-10-19T02:10:18.168Z,15.50
2022-10-19T02:12:48.049Z,18.40
2022-10-19T02:15:22.411Z,21.60
2022-10-19T02:17:56.886Z,18.60
2022-10-19T02:20:27.387Z,22.80
2022-10-19T02:22:55.710Z,19.50
2022-10-19T02:25:25.183Z,19.20
2022-10-19T02:27:53.576Z,19.90
2022-10-19T02:30:22.413Z,22.60
2022-10-19T02:32:51.303Z,22.50
2022-10-19T02:35:19.678Z,21.30
2022-10-19T02:37:47.967Z,23.60
2022-10-19T02:40:16.528Z,22.30
2022-10-19T02:43:04.400Z,24.10
2022-10-19T02:45:39.325Z,25.80
2022-10-19T02:48:14.284Z,31.60
2022-10-19T02:50:47.755Z,25.70
2022-10-19T02:53:16.807Z,28.60
2022-10-19T02:55:47.745Z,26.50
2022-10-19T02:58:16.379Z,21.60
2022-10-19T03:00:44.643Z,23.90
2022-10-19T03:03:12.935Z,24.70
2022-10-19T03:05:41.160Z,22.30
2022-10-19T03:08:09.408Z,29.00
2022-10-19T03:10:37.656Z,31.40
2022-10-19T03:13:05.821Z,22.20
2022-10-19T03:15:34.066Z,26.10
2022-10-19T03:18:02.273Z,25.80
2022-10-19T03:20:30.456Z,24.80
2022-10-19T03:22:58.715Z,22.30
2022-10-19T03:25:27.263Z,24.90
2022-10-19T03:27:55.600Z,27.50
2022-10-19T03:30:23.798Z,28.80
2022-10-19T03:32:51.989Z,24.40
2022-10-19T03:35:20.203Z,23.80
2022-10-19T03:37:48.377Z,26.40
2022-10-19T03:40:16.970Z,25.10
2022-10-19T03:42:45.170Z,24.90
2022-10-19T03:45:13.634Z,26.80
2022-10-19T03:47:41.796Z,24.20
2022-10-19T03:50:13.231Z,23.80
2022-10-19T03:52:41.424Z,26.20
2022-10-19T03:55:10.715Z,23.50
2022-10-19T03:57:38.898Z,29.70
2022-10-19T04:00:09.984Z,23.70
2022-10-19T04:02:38.194Z,23.60
2022-10-19T04:05:07.658Z,22.40
2022-10-19T04:07:36.007Z,25.10
2022-10-19T04:10:04.983Z,23.70
2022-10-19T04:12:33.387Z,24.50
2022-10-19T04:15:01.601Z,24.60
2022-10-19T04:17:29.940Z,25.70
2022-10-19T04:19:58.119Z,22.90
2022-10-19T04:22:26.300Z,24.30
2022-10-19T04:24:54.614Z,26.40
2022-10-19T04:27:22.845Z,23.50
2022-10-19T04:29:51.048Z,26.30
2022-10-19T04:32:19.209Z,28.80
2022-10-19T04:34:47.419Z,24.50
2022-10-19T04:37:15.568Z,26.30
2022-10-19T04:39:44.683Z,29.80
2022-10-19T04:42:12.845Z,30.30
2022-10-19T04:44:41.055Z,27.40
2022-10-19T04:47:09.276Z,25.00
2022-10-19T04:49:37.518Z,27.40
2022-10-19T04:52:05.688Z,26.20
2022-10-19T04:54:33.910Z,24.40
2022-10-19T04:57:02.124Z,23.70
2022-10-19T04:59:30.294Z,24.40
2022-10-19T05:01:58.513Z,24.60
2022-10-19T05:04:27.211Z,26.10
2022-10-19T05:06:58.472Z,28.20
2022-10-19T05:09:26.720Z,20.10
2022-10-19T05:11:54.927Z,21.00
2022-10-19T05:14:23.337Z,24.10
2022-10-19T05:16:51.615Z,24.30
2022-10-19T05:19:19.867Z,24.00
2022-10-19T05:21:48.063Z,18.10
2022-10-19T05:24:16.264Z,19.10
2022-10-19T05:26:44.546Z,20.00
2022-10-19T05:29:13.993Z,21.20
2022-10-19T05:31:42.525Z,23.40
2022-10-19T05:34:10.868Z,21.00
2022-10-19T05:36:40.908Z,21.70
2022-10-19T05:39:15.012Z,17.50
2022-10-19T05:41:47.887Z,17.40
2022-10-19T05:44:20.086Z,14.70
2022-10-19T05:46:49.876Z,17.00
2022-10-19T05:49:21.421Z,17.80
2022-10-19T05:51:50.413Z,12.60
2022-10-19T05:54:20.269Z,13.10
2022-10-19T05:56:50.043Z,17.30
2022-10-19T05:59:21.518Z,10.80
2022-10-19T06:01:49.999Z,12.40
2022-10-19T06:04:18.254Z,11.20
2022-10-19T06:06:46.559Z,17.00
2022-10-19T06:09:14.993Z,13.10
2022-10-19T06:11:43.508Z,9.20
2022-10-19T06:14:15.597Z,9.80
2022-10-19T06:16:46.134Z,11.00
2022-10-19T06:19:14.766Z,12.00
2022-10-19T06:21:45.843Z,8.90
2022-10-19T06:24:14.348Z,7.60
2022-10-19T06:26:42.862Z,8.20
2022-10-19T06:29:11.677Z,7.60
2022-10-19T06:31:40.006Z,8.00
2022-10-19T06:34:08.344Z,12.00
2022-10-19T06:36:36.650Z,10.00
2022-10-19T06:39:04.855Z,7.10
2022-10-19T06:41:34.246Z,10.10
2022-10-19T06:44:02.612Z,9.80
2022-10-19T06:46:32.315Z,12.10
2022-10-19T06:49:02.179Z,8.80
2022-10-19T06:51:34.029Z,8.60
2022-10-19T06:54:02.344Z,7.10
2022-10-19T06:56:30.685Z,12.30
2022-10-19T06:58:59.446Z,8.50
2022-10-19T07:01:27.934Z,10.10
2022-10-19T07:03:56.348Z,10.80
2022-10-19T07:06:27.195Z,14.40
2022-10-19T07:08:55.547Z,12.00
2022-10-19T07:11:23.811Z,11.80
2022-10-19T07:13:53.542Z,10.10
2022-10-19T07:16:22.518Z,8.80
2022-10-19T07:18:53.222Z,8.40
2022-10-19T07:21:23.439Z,16.70
2022-10-19T07:23:52.066Z,11.70
2022-10-19T07:26:27.155Z,6.90
2022-10-19T07:28:58.043Z,7.30
2022-10-19T07:31:29.434Z,8.60
2022-10-19T07:34:01.482Z,9.90
2022-10-19T07:36:33.149Z,6.70
2022-10-19T07:39:05.348Z,7.70
2022-10-19T07:41:37.551Z,6.10
2022-10-19T07:44:06.180Z,9.50
2022-10-19T07:46:35.821Z,9.50
2022-10-19T07:49:09.793Z,6.60
2022-10-19T07:51:38.597Z,6.20
2022-10-19T07:54:07.019Z,9.50
2022-10-19T07:56:35.968Z,11.50
2022-10-19T07:59:05.501Z,6.40
2022-10-19T08:01:41.224Z,5.50
2022-10-19T08:06:57.815Z,12.50
2022-10-19T08:09:53.261Z,7.20
2022-10-19T08:12:15.638Z,7.30
2022-10-19T08:14:44.029Z,4.70
2022-10-19T08:17:16.798Z,8.10
2022-10-19T08:19:47.165Z,10.50
2022-10-19T08:22:15.545Z,5.60
2022-10-19T08:24:43.821Z,8.60
2022-10-19T08:27:12.038Z,4.90
2022-10-19T08:29:40.353Z,6.90
2022-10-19T08:32:08.877Z,8.20
2022-10-19T08:34:37.186Z,3.90
2022-10-19T08:37:14.712Z,3.20
2022-10-19T08:39:54.042Z,5.90
2022-10-19T08:42:53.694Z,5.90
2022-10-19T08:45:32.267Z,3.60
2022-10-19T08:48:23.953Z,7.80
2022-10-19T08:50:53.460Z,4.90
2022-10-19T08:53:30.436Z,3.60
2022-10-19T08:56:49.274Z,5.60
2022-10-19T08:59:39.188Z,4.30
2022-10-19T09:02:42.216Z,3.50
2022-10-19T09:05:23.899Z,4.10
2022-10-19T09:07:54.578Z,4.80
2022-10-19T09:10:29.045Z,5.10
2022-10-19T09:13:15.152Z,3.80
2022-10-19T09:15:47.763Z,3.30
2022-10-19T09:18:24.384Z,3.30
2022-10-19T09:21:28.157Z,3.20
2022-10-19T09:24:16.116Z,3.50
2022-10-19T09:26:53.310Z,3.90
2022-10-19T09:29:47.855Z,3.10
2022-10-19T09:32:23.710Z,2.40
2022-10-19T09:34:57.721Z,2.90
2022-10-19T09:37:26.892Z,1.70
2022-10-19T09:39:56.500Z,1.90
2022-10-19T09:42:33.676Z,1.50
2022-10-19T09:45:19.779Z,2.70
2022-10-19T09:50:27.154Z,2.20
2022-10-19T09:53:05.631Z,3.50
2022-10-19T09:55:39.554Z,3.30
2022-10-19T09:58:13.658Z,4.20
2022-10-19T10:00:50.655Z,1.90
2022-10-19T10:03:43.731Z,1.70
2022-10-19T10:06:17.798Z,1.90
2022-10-19T10:08:50.668Z,1.90
2022-10-19T10:11:34.149Z,1.20
2022-10-19T10:14:20.385Z,3.80
2022-10-19T10:16:54.182Z,1.40
2022-10-19T10:19:27.692Z,1.20
2022-10-19T10:21:58.228Z,2.40
2022-10-19T10:24:29.902Z,1.30
2022-10-19T10:27:04.839Z,1.90
2022-10-19T10:29:36.699Z,5.60
2022-10-19T10:32:06.068Z,1.50
2022-10-19T10:34:51.784Z,2.00
2022-10-19T10:37:40.928Z,2.20
2022-10-19T10:40:39.202Z,1.90
2022-10-19T10:43:17.840Z,2.90
2022-10-19T10:45:49.791Z,1.90
2022-10-19T10:48:38.973Z,1.70
2022-10-19T10:51:49.289Z,2.20
2022-10-19T10:54:27.304Z,1.30
2022-10-19T10:57:09.501Z,1.70
2022-10-19T10:59:57.752Z,1.80
2022-10-19T11:03:07.776Z,1.10
2022-10-19T11:05:46.665Z,1.40
2022-10-19T11:08:26.504Z,1.90
2022-10-19T11:11:04.820Z,3.20
2022-10-19T11:13:51.609Z,2.70
2022-10-19T11:16:26.100Z,1.90
2022-10-19T11:19:08.076Z,1.30
2022-10-19T11:22:06.724Z,4.00
2022-10-19T11:25:25.236Z,2.40
2022-10-19T11:28:34.994Z,2.60
2022-10-19T11:31:19.319Z,0.60
2022-10-19T11:34:23.644Z,1.40
2022-10-19T11:37:10.123Z,1.20
2022-10-19T11:40:08.673Z,3.40
2022-10-19T11:43:04.998Z,2.30
2022-10-19T11:46:03.978Z,2.80
2022-10-19T11:49:06.381Z,1.50
2022-10-19T11:51:57.653Z,2.60
2022-10-19T11:54:41.062Z,1.80
2022-10-19T11:57:37.015Z,5.20
2022-10-19T12:00:38.190Z,1.80
2022-10-19T12:03:50.168Z,1.10
2022-10-19T12:06:54.368Z,1.40
2022-10-19T12:10:01.594Z,0.80
2022-10-19T12:12:41.240Z,0.80
2022-10-19T12:15:12.282Z,0.60
2022-10-19T12:17:45.055Z,1.70
2022-10-19T12:20:42.995Z,1.20
2022-10-19T12:23:28.598Z,6.80
2022-10-19T12:25:59.818Z,1.40
2022-10-19T12:28:35.368Z,2.00
2022-10-19T12:31:06.036Z,2.80
2022-10-19T12:34:18.199Z,1.40
2022-10-19T12:37:12.055Z,2.30
2022-10-19T12:40:04.916Z,1.90
2022-10-19T12:42:51.885Z,1.80
2022-10-19T12:45:32.928Z,1.90
2022-10-19T12:48:14.417Z,3.60
2022-10-19T12:50:48.696Z,4.40
2022-10-19T12:53:38.375Z,1.50
2022-10-19T12:56:09.680Z,1.10
2022-10-19T12:58:46.711Z,2.30
2022-10-19T13:01:36.022Z,3.70
2022-10-19T13:04:22.496Z,2.20
2022-10-19T13:07:08.263Z,1.50
2022-10-19T13:09:40.447Z,1.20
2022-10-19T13:12:19.364Z,1.30
2022-10-19T13:15:04.774Z,2.10
2022-10-19T13:17:49.084Z,6.40
2022-10-19T13:20:17.272Z,4.10
2022-10-19T13:23:10.986Z,2.50
2022-10-19T13:25:43.481Z,2.60
2022-10-19T13:28:15.229Z,1.30
2022-10-19T13:30:43.892Z,3.20
2022-10-19T13:33:30.253Z,2.40
2022-10-19T13:35:58.426Z,2.00
2022-10-19T13:38:48.598Z,1.60
2022-10-19T13:41:25.913Z,2.60
2022-10-19T13:44:12.450Z,1.30
2022-10-19T13:47:00.791Z,3.30
2022-10-19T13:49:52.352Z,2.60
2022-10-19T13:52:54.767Z,2.60
2022-10-19T13:55:47.225Z,5.50
2022-10-19T13:58:45.947Z,1.30
2022-10-19T14:01:43.967Z,3.30
2022-10-19T14:04:45.020Z,3.40
2022-10-19T14:07:25.341Z,1.10
2022-10-19T14:10:32.660Z,2.90
2022-10-19T14:13:05.437Z,2.20
2022-10-19T14:15:35.230Z,1.90
2022-10-19T14:18:05.886Z,1.30
2022-10-19T14:20:39.148Z,1.30
2022-10-19T14:23:30.154Z,3.90
2022-10-19T14:26:03.860Z,1.20
2022-10-19T14:28:34.137Z,4.50
2022-10-19T14:31:10.699Z,1.10
2022-10-19T14:33:45.939Z,1.00
2022-10-19T14:39:06.109Z,2.00
2022-10-19T14:42:10.732Z,2.50
2022-10-19T14:44:44.121Z,1.90
2022-10-19T14:47:26.855Z,1.60
2022-10-19T14:49:55.166Z,2.30
2022-10-19T14:52:36.378Z,0.90
2022-10-19T14:55:17.831Z,7.90
2022-10-19T14:57:52.135Z,2.20
2022-10-19T15:00:23.870Z,5.70
2022-10-19T15:03:05.172Z,2.40
2022-10-19T15:05:37.782Z,5.30
2022-10-19T15:08:21.455Z,4.90
2022-10-19T15:10:50.667Z,2.00
2022-10-19T15:13:34.633Z,2.40
2022-10-19T15:16:02.881Z,3.10
2022-10-19T15:18:49.494Z,4.60
2022-10-19T15:21:21.171Z,3.50
2022-10-19T15:23:52.206Z,2.20
2022-10-19T15:26:24.450Z,4.20
2022-10-19T15:28:55.633Z,3.50
2022-10-19T15:31:29.370Z,4.90
2022-10-19T15:34:00.802Z,4.60
2022-10-19T15:36:38.928Z,3.20
2022-10-19T15:39:25.095Z,4.20
2022-10-19T15:41:53.946Z,2.80
2022-10-19T15:44:43.625Z,3.70
2022-10-19T15:47:19.297Z,3.60
2022-10-19T15:50:01.605Z,5.00
2022-10-19T15:52:34.595Z,7.30
2022-10-19T15:55:03.179Z,5.50
2022-10-19T15:57:39.306Z,9.30
2022-10-19T16:00:16.659Z,6.50
2022-10-19T16:02:45.039Z,7.20
2022-10-19T16:05:13.276Z,4.80
2022-10-19T16:08:11.609Z,8.60
2022-10-19T16:10:40.830Z,7.20
2022-10-19T16:13:09.087Z,8.00
2022-10-19T16:15:37.435Z,7.80
2022-10-19T16:18:05.693Z,5.10
2022-10-19T16:20:33.916Z,4.10
2022-10-19T16:23:02.162Z,5.20
2022-10-19T16:25:30.522Z,8.90
2022-10-19T16:27:59.001Z,6.80
2022-10-19T16:30:27.346Z,8.40
2022-10-19T16:32:55.628Z,11.80
2022-10-19T16:35:24.534Z,5.70
2022-10-19T16:37:53.106Z,5.60
2022-10-19T16:40:21.758Z,7.50
2022-10-19T16:48:01.498Z,7.00
2022-10-19T16:50:29.790Z,9.50
2022-10-19T16:53:10.135Z,10.50
2022-10-19T16:55:40.827Z,10.50
2022-10-19T16:58:09.143Z,11.10
2022-10-19T17:00:37.499Z,9.30
2022-10-19T17:03:05.858Z,10.70
2022-10-19T17:05:39.190Z,6.40
2022-10-19T17:08:13.451Z,4.80
2022-10-19T17:10:41.860Z,13.90
2022-10-19T17:13:10.083Z,19.40
2022-10-19T17:15:42.965Z,22.90
2022-10-19T17:18:11.898Z,15.80
2022-10-19T17:20:40.221Z,20.70
2022-10-19T17:23:08.598Z,10.80
2022-10-19T17:25:37.084Z,10.20
2022-10-19T17:39:46.134Z,11.40
2022-10-19T17:42:14.382Z,7.10
2022-10-19T17:44:42.656Z,8.20
2022-10-19T17:47:10.859Z,6.30
2022-10-19T17:49:39.239Z,6.40
2022-10-19T17:52:07.548Z,5.80
2022-10-19T17:54:43.670Z,4.70
2022-10-19T17:57:22.706Z,4.30
2022-10-19T17:59:55.693Z,7.10
2022-10-19T18:02:24.022Z,11.70
2022-10-19T18:04:52.320Z,6.70
2022-10-19T18:07:22.100Z,11.30
2022-10-19T18:09:50.336Z,12.50
2022-10-19T18:12:18.633Z,14.00
2022-10-19T18:14:46.811Z,11.30
2022-10-19T18:17:15.051Z,15.80
2022-10-19T18:19:43.264Z,10.20
2022-10-19T18:22:11.480Z,12.90
2022-10-19T18:24:39.675Z,8.70
2022-10-19T18:27:07.967Z,9.60
2022-10-19T18:29:36.203Z,8.10
2022-10-19T18:34:38.704Z,13.10
2022-10-19T18:37:07.416Z,9.90
2022-10-19T18:39:36.040Z,8.40
2022-10-19T18:42:04.244Z,13.20
2022-10-19T18:44:33.728Z,24.40
2022-10-19T18:47:02.304Z,18.60
2022-10-19T18:49:30.709Z,15.10
2022-10-19T18:51:59.206Z,12.20
2022-10-19T18:54:28.146Z,14.10
2022-10-19T18:56:56.500Z,15.10
2022-10-19T18:59:24.796Z,12.50
2022-10-19T19:01:53.165Z,15.00
2022-10-19T19:04:21.620Z,26.50
2022-10-19T19:06:54.668Z,29.20
2022-10-19T19:09:26.712Z,23.30
2022-10-19T19:11:57.897Z,21.60
2022-10-19T19:14:26.430Z,21.90
2022-10-19T19:16:54.773Z,22.50
2022-10-19T19:19:25.392Z,20.10
2022-10-19T19:21:53.898Z,18.10
2022-10-19T19:24:23.277Z,19.20
2022-10-19T19:26:54.334Z,16.70
2022-10-19T19:29:23.221Z,23.60
2022-10-19T19:31:53.547Z,51.80
2022-10-19T19:34:22.431Z,44.20
2022-10-19T19:36:50.738Z,35.20
2022-10-19T19:39:21.230Z,27.70
2022-10-19T19:41:50.328Z,33.30
2022-10-19T19:44:19.256Z,30.70
2022-10-19T19:46:47.608Z,26.70
2022-10-19T19:49:16.366Z,26.70
2022-10-19T19:51:44.609Z,26.50
2022-10-19T19:54:12.892Z,26.30
2022-10-19T19:56:42.510Z,31.90
2022-10-19T19:59:12.925Z,25.00
2022-10-19T20:01:41.680Z,26.70
2022-10-19T20:04:11.044Z,21.40
2022-10-19T20:06:40.809Z,23.70
2022-10-19T20:09:10.759Z,20.60
2022-10-19T20:11:42.426Z,21.10
2022-10-19T20:14:12.711Z,24.00
2022-10-19T20:16:41.055Z,15.00
2022-10-19T20:19:12.983Z,17.30
2022-10-19T20:21:41.522Z,21.70
2022-10-19T20:24:10.058Z,22.30
2022-10-19T20:26:38.489Z,25.10
2022-10-19T20:29:07.043Z,19.20
2022-10-19T20:31:39.679Z,35.70
2022-10-19T20:34:11.256Z,36.10
2022-10-19T20:47:28.168Z,47.20
2022-10-19T20:49:56.540Z,43.20
2022-10-19T20:52:24.875Z,49.00
2022-10-19T20:54:53.087Z,37.40
2022-10-19T20:57:21.262Z,38.60
2022-10-19T20:59:49.703Z,37.10
2022-10-19T21:02:17.958Z,36.50
2022-10-19T21:04:46.275Z,42.50
2022-10-19T21:07:14.589Z,39.00
2022-10-19T21:09:42.786Z,35.90
2022-10-19T21:12:11.030Z,22.30
2022-10-19T21:14:39.295Z,38.40
2022-10-19T21:17:07.565Z,35.90
2022-10-19T21:19:35.847Z,24.60
2022-10-19T21:22:04.171Z,24.50
2022-10-19T21:24:36.108Z,26.20
2022-10-19T21:27:07.653Z,22.80
2022-10-19T21:29:36.834Z,26.30
2022-10-19T21:32:05.755Z,22.60
2022-10-19T21:34:34.168Z,25.80
2022-10-19T21:37:02.631Z,23.90
2022-10-19T21:39:31.540Z,20.90
2022-10-19T21:41:59.721Z,19.50
2022-10-19T21:44:27.937Z,20.30
2022-10-19T21:46:56.180Z,20.30
2022-10-19T21:49:24.390Z,20.20
2022-10-19T21:51:54.570Z,17.60
2022-10-19T21:54:26.521Z,20.40
2022-10-19T21:57:01.281Z,21.20
2022-10-19T21:59:29.469Z,16.60
2022-10-19T22:01:57.781Z,16.30
2022-10-19T22:04:26.081Z,16.20
2022-10-19T22:06:54.333Z,15.90
2022-10-19T22:09:22.968Z,15.70
2022-10-19T22:11:51.188Z,16.90
2022-10-19T22:14:19.530Z,15.10
2022-10-19T22:16:47.797Z,15.20
2022-10-19T22:19:16.350Z,17.10
2022-10-19T22:21:44.563Z,11.90
2022-10-19T22:24:15.427Z,14.80
2022-10-19T22:26:47.588Z,13.20
2022-10-19T22:29:15.966Z,13.30
2022-10-19T22:31:44.254Z,13.50
2022-10-19T22:34:17.783Z,13.50
2022-10-19T22:36:46.344Z,11.70
2022-10-19T22:39:15.446Z,11.30
2022-10-19T22:53:35.868Z,9.80
2022-10-19T22:56:05.021Z,12.40
2022-10-19T22:58:33.291Z,10.90
2022-10-19T23:01:09.474Z,9.30
2022-10-19T23:03:41.405Z,12.90
2022-10-19T23:06:13.574Z,14.20
2022-10-19T23:08:43.669Z,10.50
2022-10-19T23:11:12.480Z,9.60
2022-10-19T23:13:41.251Z,15.20
2022-10-19T23:16:10.276Z,14.50
2022-10-19T23:18:41.487Z,13.70
2022-10-19T23:21:13.241Z,14.40
2022-10-19T23:23:42.234Z,14.10
2022-10-19T23:26:15.681Z,12.50
2022-10-19T23:28:48.457Z,10.80
2022-10-19T23:31:24.749Z,9.70
2022-10-19T23:33:54.460Z,10.60
2022-10-19T23:36:27.295Z,11.60
2022-10-19T23:38:58.301Z,12.80
2022-10-19T23:41:27.275Z,11.10
2022-10-19T23:43:56.024Z,9.70
2022-10-19T23:46:24.259Z,10.80
2022-10-19T23:48:52.512Z,10.90
2022-10-19T23:51:21.806Z,9.60
2022-10-19T23:53:52.749Z,7.60
2022-10-19T23:56:29.587Z,8.60
2022-10-19T23:58:58.112Z,7.80
